sensor_id;sensor_type;location;lat;lon;timestamp;P1;durP1;ratioP1;P2;durP2;ratioP2
21084;SDS011;34247;50.064;19.970;2023-06-22T00:01:10;7.25;;;3.35;;
21084;SDS011;34247;50.064;19.970;2023-06-22T00:02:43;5.88;;;3.78;;
21084;SDS011;34247;50.064;19.970;2023-06-22T00:04:17;3.67;;;2.55;;
21084;SDS011;34247;50.064;19.970;2023-06-22T00:05:50;5.53;;;3.20;;
21084;SDS011;34247;50.064;19.970;2023-06-22T00:07:24;4.50;;;2.85;;
21084;SDS011;34247;50.064;19.970;2023-06-22T00:08:58;5.20;;;3.42;;
21084;SDS011;34247;50.064;19.970;2023-06-22T00:10:31;4.47;;;3.20;;
21084;SDS011;34247;50.064;19.970;2023-06-22T00:12:04;7.13;;;3.45;;
21084;SDS011;34247;50.064;19.970;2023-06-22T00:13:40;4.70;;;3.00;;
21084;SDS011;34247;50.064;19.970;2023-06-22T00:15:13;9.63;;;3.65;;
21084;SDS011;34247;50.064;19.970;2023-06-22T00:16:47;8.95;;;3.90;;
21084;SDS011;34247;50.064;19.970;2023-06-22T00:18:20;5.55;;;3.45;;
21084;SDS011;34247;50.064;19.970;2023-06-22T00:19:53;6.22;;;3.60;;
21084;SDS011;34247;50.064;19.970;2023-06-22T00:21:26;6.03;;;3.58;;
21084;SDS011;34247;50.064;19.970;2023-06-22T00:23:00;5.97;;;4.03;;
21084;SDS011;34247;50.064;19.970;2023-06-22T00:24:33;7.05;;;3.92;;
21084;SDS011;34247;50.064;19.970;2023-06-22T00:26:07;6.15;;;3.65;;
21084;SDS011;34247;50.064;19.970;2023-06-22T00:27:40;4.35;;;3.50;;
21084;SDS011;34247;50.064;19.970;2023-06-22T00:29:14;4.30;;;3.40;;
21084;SDS011;34247;50.064;19.970;2023-06-22T00:30:51;6.30;;;2.78;;
21084;SDS011;34247;50.064;19.970;2023-06-22T00:32:24;6.47;;;4.00;;
21084;SDS011;34247;50.064;19.970;2023-06-22T00:33:58;7.63;;;3.05;;
21084;SDS011;34247;50.064;19.970;2023-06-22T00:35:33;4.78;;;3.42;;
21084;SDS011;34247;50.064;19.970;2023-06-22T00:37:07;6.20;;;3.65;;
21084;SDS011;34247;50.064;19.970;2023-06-22T00:38:41;4.97;;;3.65;;
21084;SDS011;34247;50.064;19.970;2023-06-22T00:40:14;4.78;;;3.25;;
21084;SDS011;34247;50.064;19.970;2023-06-22T00:41:48;6.15;;;3.25;;
21084;SDS011;34247;50.064;19.970;2023-06-22T00:43:21;5.97;;;3.42;;
21084;SDS011;34247;50.064;19.970;2023-06-22T00:44:54;6.47;;;3.25;;
21084;SDS011;34247;50.064;19.970;2023-06-22T00:46:28;6.45;;;3.38;;
21084;SDS011;34247;50.064;19.970;2023-06-22T00:48:05;5.88;;;3.70;;
21084;SDS011;34247;50.064;19.970;2023-06-22T00:49:44;8.25;;;3.28;;
21084;SDS011;34247;50.064;19.970;2023-06-22T00:51:22;5.05;;;3.28;;
21084;SDS011;34247;50.064;19.970;2023-06-22T00:52:55;5.88;;;2.97;;
21084;SDS011;34247;50.064;19.970;2023-06-22T00:54:33;11.82;;;3.80;;
21084;SDS011;34247;50.064;19.970;2023-06-22T00:56:06;6.25;;;2.88;;
21084;SDS011;34247;50.064;19.970;2023-06-22T00:57:40;5.82;;;3.05;;
21084;SDS011;34247;50.064;19.970;2023-06-22T00:59:14;5.07;;;2.97;;
21084;SDS011;34247;50.064;19.970;2023-06-22T01:00:48;4.97;;;3.33;;
21084;SDS011;34247;50.064;19.970;2023-06-22T01:02:22;5.05;;;3.72;;
21084;SDS011;34247;50.064;19.970;2023-06-22T01:06:57;5.35;;;2.67;;
21084;SDS011;34247;50.064;19.970;2023-06-22T01:09:02;4.00;;;2.97;;
21084;SDS011;34247;50.064;19.970;2023-06-22T01:11:08;5.60;;;3.50;;
21084;SDS011;34247;50.064;19.970;2023-06-22T01:12:53;3.28;;;2.88;;
21084;SDS011;34247;50.064;19.970;2023-06-22T01:16:30;5.10;;;2.70;;
21084;SDS011;34247;50.064;19.970;2023-06-22T01:18:07;5.50;;;3.55;;
21084;SDS011;34247;50.064;19.970;2023-06-22T01:21:20;5.82;;;3.08;;
21084;SDS011;34247;50.064;19.970;2023-06-22T01:23:11;10.85;;;4.25;;
21084;SDS011;34247;50.064;19.970;2023-06-22T01:25:11;3.85;;;2.85;;
21084;SDS011;34247;50.064;19.970;2023-06-22T01:27:15;6.60;;;3.20;;
21084;SDS011;34247;50.064;19.970;2023-06-22T01:29:04;7.72;;;3.67;;
21084;SDS011;34247;50.064;19.970;2023-06-22T01:30:41;8.52;;;3.40;;
21084;SDS011;34247;50.064;19.970;2023-06-22T01:32:18;4.50;;;3.08;;
21084;SDS011;34247;50.064;19.970;2023-06-22T01:33:54;6.40;;;3.25;;
21084;SDS011;34247;50.064;19.970;2023-06-22T01:35:34;5.30;;;2.90;;
21084;SDS011;34247;50.064;19.970;2023-06-22T01:37:10;5.78;;;3.00;;
21084;SDS011;34247;50.064;19.970;2023-06-22T01:38:48;5.05;;;2.90;;
21084;SDS011;34247;50.064;19.970;2023-06-22T01:40:24;8.90;;;3.20;;
21084;SDS011;34247;50.064;19.970;2023-06-22T01:42:02;6.90;;;4.03;;
21084;SDS011;34247;50.064;19.970;2023-06-22T01:43:38;3.38;;;2.72;;
21084;SDS011;34247;50.064;19.970;2023-06-22T01:45:15;10.75;;;3.85;;
21084;SDS011;34247;50.064;19.970;2023-06-22T01:46:50;5.82;;;3.05;;
21084;SDS011;34247;50.064;19.970;2023-06-22T01:48:25;8.98;;;3.47;;
21084;SDS011;34247;50.064;19.970;2023-06-22T01:50:00;5.63;;;2.83;;
21084;SDS011;34247;50.064;19.970;2023-06-22T01:51:37;5.45;;;2.95;;
21084;SDS011;34247;50.064;19.970;2023-06-22T01:53:10;7.28;;;3.60;;
21084;SDS011;34247;50.064;19.970;2023-06-22T01:54:46;6.15;;;3.22;;
21084;SDS011;34247;50.064;19.970;2023-06-22T01:56:20;9.77;;;3.10;;
21084;SDS011;34247;50.064;19.970;2023-06-22T01:57:54;5.13;;;3.20;;
21084;SDS011;34247;50.064;19.970;2023-06-22T02:01:31;7.75;;;3.55;;
21084;SDS011;34247;50.064;19.970;2023-06-22T02:03:19;4.57;;;2.97;;
21084;SDS011;34247;50.064;19.970;2023-06-22T02:05:03;5.20;;;2.83;;
21084;SDS011;34247;50.064;19.970;2023-06-22T02:06:42;6.28;;;3.20;;
21084;SDS011;34247;50.064;19.970;2023-06-22T02:08:25;5.22;;;2.60;;
21084;SDS011;34247;50.064;19.970;2023-06-22T02:10:08;5.65;;;2.75;;
21084;SDS011;34247;50.064;19.970;2023-06-22T02:11:44;4.80;;;2.50;;
21084;SDS011;34247;50.064;19.970;2023-06-22T02:13:20;6.10;;;2.60;;
21084;SDS011;34247;50.064;19.970;2023-06-22T02:14:54;3.70;;;2.80;;
21084;SDS011;34247;50.064;19.970;2023-06-22T02:16:28;7.03;;;3.28;;
21084;SDS011;34247;50.064;19.970;2023-06-22T02:18:04;4.72;;;3.05;;
21084;SDS011;34247;50.064;19.970;2023-06-22T02:19:40;3.88;;;2.70;;
21084;SDS011;34247;50.064;19.970;2023-06-22T02:21:14;4.22;;;2.75;;
21084;SDS011;34247;50.064;19.970;2023-06-22T02:22:47;3.90;;;2.55;;
21084;SDS011;34247;50.064;19.970;2023-06-22T02:24:21;4.03;;;2.65;;
21084;SDS011;34247;50.064;19.970;2023-06-22T02:25:54;6.53;;;3.33;;
21084;SDS011;34247;50.064;19.970;2023-06-22T02:27:27;7.85;;;2.50;;
21084;SDS011;34247;50.064;19.970;2023-06-22T02:29:01;3.70;;;2.63;;
21084;SDS011;34247;50.064;19.970;2023-06-22T02:30:34;3.60;;;2.90;;
21084;SDS011;34247;50.064;19.970;2023-06-22T02:32:07;5.97;;;3.50;;
21084;SDS011;34247;50.064;19.970;2023-06-22T02:33:41;4.60;;;3.05;;
21084;SDS011;34247;50.064;19.970;2023-06-22T02:35:18;4.22;;;3.08;;
21084;SDS011;34247;50.064;19.970;2023-06-22T02:36:51;3.20;;;2.60;;
21084;SDS011;34247;50.064;19.970;2023-06-22T02:38:24;8.23;;;3.00;;
21084;SDS011;34247;50.064;19.970;2023-06-22T02:39:57;7.68;;;3.05;;
21084;SDS011;34247;50.064;19.970;2023-06-22T02:41:31;4.57;;;3.13;;
21084;SDS011;34247;50.064;19.970;2023-06-22T02:43:04;4.13;;;2.80;;
21084;SDS011;34247;50.064;19.970;2023-06-22T02:44:37;4.47;;;2.80;;
21084;SDS011;34247;50.064;19.970;2023-06-22T02:46:11;5.07;;;2.90;;
21084;SDS011;34247;50.064;19.970;2023-06-22T02:47:45;10.63;;;3.55;;
21084;SDS011;34247;50.064;19.970;2023-06-22T02:49:19;7.88;;;3.00;;
21084;SDS011;34247;50.064;19.970;2023-06-22T02:50:52;4.82;;;2.88;;
21084;SDS011;34247;50.064;19.970;2023-06-22T02:52:25;10.50;;;3.58;;
21084;SDS011;34247;50.064;19.970;2023-06-22T02:53:58;4.60;;;3.20;;
21084;SDS011;34247;50.064;19.970;2023-06-22T02:55:32;3.75;;;2.85;;
21084;SDS011;34247;50.064;19.970;2023-06-22T02:57:05;4.20;;;3.17;;
21084;SDS011;34247;50.064;19.970;2023-06-22T02:58:39;5.60;;;3.33;;
21084;SDS011;34247;50.064;19.970;2023-06-22T03:00:13;4.30;;;3.20;;
21084;SDS011;34247;50.064;19.970;2023-06-22T03:01:47;5.00;;;2.97;;
21084;SDS011;34247;50.064;19.970;2023-06-22T03:03:20;4.32;;;2.92;;
21084;SDS011;34247;50.064;19.970;2023-06-22T03:04:53;13.63;;;3.00;;
21084;SDS011;34247;50.064;19.970;2023-06-22T03:06:26;4.78;;;3.10;;
21084;SDS011;34247;50.064;19.970;2023-06-22T03:07:59;3.38;;;3.08;;
21084;SDS011;34247;50.064;19.970;2023-06-22T03:09:33;6.70;;;3.50;;
21084;SDS011;34247;50.064;19.970;2023-06-22T03:11:06;7.13;;;3.85;;
21084;SDS011;34247;50.064;19.970;2023-06-22T03:12:40;6.47;;;3.45;;
21084;SDS011;34247;50.064;19.970;2023-06-22T03:14:15;8.93;;;3.67;;
21084;SDS011;34247;50.064;19.970;2023-06-22T03:15:48;5.10;;;3.03;;
21084;SDS011;34247;50.064;19.970;2023-06-22T03:17:21;5.05;;;2.63;;
21084;SDS011;34247;50.064;19.970;2023-06-22T03:18:54;4.72;;;2.72;;
21084;SDS011;34247;50.064;19.970;2023-06-22T03:20:28;6.28;;;3.20;;
21084;SDS011;34247;50.064;19.970;2023-06-22T03:22:01;6.15;;;3.42;;
21084;SDS011;34247;50.064;19.970;2023-06-22T03:23:35;4.13;;;3.05;;
21084;SDS011;34247;50.064;19.970;2023-06-22T03:25:08;6.85;;;3.53;;
21084;SDS011;34247;50.064;19.970;2023-06-22T03:26:42;6.20;;;2.70;;
21084;SDS011;34247;50.064;19.970;2023-06-22T03:28:15;4.78;;;2.95;;
21084;SDS011;34247;50.064;19.970;2023-06-22T03:29:49;8.20;;;3.42;;
21084;SDS011;34247;50.064;19.970;2023-06-22T03:31:22;6.40;;;2.92;;
21084;SDS011;34247;50.064;19.970;2023-06-22T03:32:56;4.82;;;3.38;;
21084;SDS011;34247;50.064;19.970;2023-06-22T03:34:29;5.55;;;3.30;;
21084;SDS011;34247;50.064;19.970;2023-06-22T03:36:02;6.80;;;3.03;;
21084;SDS011;34247;50.064;19.970;2023-06-22T03:37:36;4.80;;;3.20;;
21084;SDS011;34247;50.064;19.970;2023-06-22T03:39:09;3.83;;;3.00;;
21084;SDS011;34247;50.064;19.970;2023-06-22T03:40:42;7.65;;;2.75;;
21084;SDS011;34247;50.064;19.970;2023-06-22T03:42:16;5.10;;;3.05;;
21084;SDS011;34247;50.064;19.970;2023-06-22T03:43:50;4.72;;;3.03;;
21084;SDS011;34247;50.064;19.970;2023-06-22T03:45:23;6.32;;;3.35;;
21084;SDS011;34247;50.064;19.970;2023-06-22T03:46:56;7.32;;;3.08;;
21084;SDS011;34247;50.064;19.970;2023-06-22T03:48:29;6.13;;;3.00;;
21084;SDS011;34247;50.064;19.970;2023-06-22T03:50:03;4.60;;;3.35;;
21084;SDS011;34247;50.064;19.970;2023-06-22T03:51:38;6.55;;;3.20;;
21084;SDS011;34247;50.064;19.970;2023-06-22T03:53:11;5.35;;;3.25;;
21084;SDS011;34247;50.064;19.970;2023-06-22T03:54:44;5.40;;;3.00;;
21084;SDS011;34247;50.064;19.970;2023-06-22T03:56:17;4.32;;;2.55;;
21084;SDS011;34247;50.064;19.970;2023-06-22T03:57:50;4.25;;;3.10;;
21084;SDS011;34247;50.064;19.970;2023-06-22T03:59:24;4.38;;;3.30;;
21084;SDS011;34247;50.064;19.970;2023-06-22T04:00:58;5.93;;;3.40;;
21084;SDS011;34247;50.064;19.970;2023-06-22T04:02:31;8.30;;;3.17;;
21084;SDS011;34247;50.064;19.970;2023-06-22T04:04:05;5.25;;;3.17;;
21084;SDS011;34247;50.064;19.970;2023-06-22T04:05:42;7.38;;;3.33;;
21084;SDS011;34247;50.064;19.970;2023-06-22T04:07:15;4.28;;;3.08;;
21084;SDS011;34247;50.064;19.970;2023-06-22T04:08:49;5.35;;;3.58;;
21084;SDS011;34247;50.064;19.970;2023-06-22T04:10:22;6.78;;;3.28;;
21084;SDS011;34247;50.064;19.970;2023-06-22T04:11:56;4.88;;;2.70;;
21084;SDS011;34247;50.064;19.970;2023-06-22T04:13:29;3.90;;;2.85;;
21084;SDS011;34247;50.064;19.970;2023-06-22T04:15:03;4.97;;;2.88;;
21084;SDS011;34247;50.064;19.970;2023-06-22T04:16:38;4.63;;;3.08;;
21084;SDS011;34247;50.064;19.970;2023-06-22T04:18:11;4.78;;;3.30;;
21084;SDS011;34247;50.064;19.970;2023-06-22T04:19:45;4.32;;;3.55;;
21084;SDS011;34247;50.064;19.970;2023-06-22T04:21:19;4.28;;;2.97;;
21084;SDS011;34247;50.064;19.970;2023-06-22T04:22:53;3.67;;;2.97;;
21084;SDS011;34247;50.064;19.970;2023-06-22T04:24:26;3.83;;;3.40;;
21084;SDS011;34247;50.064;19.970;2023-06-22T04:25:59;4.95;;;3.10;;
21084;SDS011;34247;50.064;19.970;2023-06-22T04:27:32;6.00;;;3.13;;
21084;SDS011;34247;50.064;19.970;2023-06-22T04:29:09;4.10;;;3.28;;
21084;SDS011;34247;50.064;19.970;2023-06-22T04:30:45;10.00;;;6.70;;
21084;SDS011;34247;50.064;19.970;2023-06-22T04:32:19;10.15;;;7.47;;
21084;SDS011;34247;50.064;19.970;2023-06-22T04:33:52;8.00;;;4.43;;
21084;SDS011;34247;50.064;19.970;2023-06-22T04:35:25;5.00;;;3.40;;
21084;SDS011;34247;50.064;19.970;2023-06-22T04:36:59;7.47;;;4.40;;
21084;SDS011;34247;50.064;19.970;2023-06-22T04:38:32;8.05;;;4.95;;
21084;SDS011;34247;50.064;19.970;2023-06-22T04:40:05;10.65;;;4.00;;
21084;SDS011;34247;50.064;19.970;2023-06-22T04:41:43;4.22;;;3.45;;
21084;SDS011;34247;50.064;19.970;2023-06-22T04:43:16;7.05;;;3.58;;
21084;SDS011;34247;50.064;19.970;2023-06-22T04:44:50;9.32;;;3.53;;
21084;SDS011;34247;50.064;19.970;2023-06-22T04:46:23;5.50;;;3.70;;
21084;SDS011;34247;50.064;19.970;2023-06-22T04:47:57;4.80;;;3.70;;
21084;SDS011;34247;50.064;19.970;2023-06-22T04:49:32;3.97;;;3.17;;
21084;SDS011;34247;50.064;19.970;2023-06-22T04:51:05;5.65;;;4.38;;
21084;SDS011;34247;50.064;19.970;2023-06-22T04:52:40;3.65;;;3.20;;
21084;SDS011;34247;50.064;19.970;2023-06-22T04:54:13;5.80;;;3.10;;
21084;SDS011;34247;50.064;19.970;2023-06-22T04:55:46;5.75;;;3.30;;
21084;SDS011;34247;50.064;19.970;2023-06-22T04:57:19;6.93;;;3.75;;
21084;SDS011;34247;50.064;19.970;2023-06-22T04:58:52;4.82;;;3.38;;
21084;SDS011;34247;50.064;19.970;2023-06-22T05:00:26;6.53;;;3.88;;
21084;SDS011;34247;50.064;19.970;2023-06-22T05:02:00;15.73;;;3.40;;
21084;SDS011;34247;50.064;19.970;2023-06-22T05:03:34;3.72;;;2.63;;
21084;SDS011;34247;50.064;19.970;2023-06-22T05:05:07;5.20;;;3.13;;
21084;SDS011;34247;50.064;19.970;2023-06-22T05:06:41;3.30;;;3.10;;
21084;SDS011;34247;50.064;19.970;2023-06-22T05:08:14;6.80;;;3.70;;
21084;SDS011;34247;50.064;19.970;2023-06-22T05:09:47;4.75;;;3.55;;
21084;SDS011;34247;50.064;19.970;2023-06-22T05:11:20;5.05;;;3.53;;
21084;SDS011;34247;50.064;19.970;2023-06-22T05:12:53;5.10;;;3.47;;
21084;SDS011;34247;50.064;19.970;2023-06-22T05:14:26;5.38;;;4.03;;
21084;SDS011;34247;50.064;19.970;2023-06-22T05:16:00;5.72;;;3.50;;
21084;SDS011;34247;50.064;19.970;2023-06-22T05:17:33;6.95;;;3.92;;
21084;SDS011;34247;50.064;19.970;2023-06-22T05:19:09;5.00;;;3.15;;
21084;SDS011;34247;50.064;19.970;2023-06-22T05:20:43;6.63;;;3.17;;
21084;SDS011;34247;50.064;19.970;2023-06-22T05:22:16;5.07;;;3.58;;
21084;SDS011;34247;50.064;19.970;2023-06-22T05:23:50;5.15;;;2.67;;
21084;SDS011;34247;50.064;19.970;2023-06-22T05:25:25;7.25;;;3.88;;
21084;SDS011;34247;50.064;19.970;2023-06-22T05:26:59;3.80;;;2.92;;
21084;SDS011;34247;50.064;19.970;2023-06-22T05:28:32;6.72;;;3.33;;
21084;SDS011;34247;50.064;19.970;2023-06-22T05:30:06;5.45;;;3.33;;
21084;SDS011;34247;50.064;19.970;2023-06-22T05:31:42;4.13;;;3.65;;
21084;SDS011;34247;50.064;19.970;2023-06-22T05:33:15;4.78;;;3.42;;
21084;SDS011;34247;50.064;19.970;2023-06-22T05:34:48;3.67;;;3.38;;
21084;SDS011;34247;50.064;19.970;2023-06-22T05:36:22;5.00;;;2.95;;
21084;SDS011;34247;50.064;19.970;2023-06-22T05:37:55;5.40;;;3.42;;
21084;SDS011;34247;50.064;19.970;2023-06-22T05:39:29;5.10;;;3.17;;
21084;SDS011;34247;50.064;19.970;2023-06-22T05:41:02;5.68;;;4.10;;
21084;SDS011;34247;50.064;19.970;2023-06-22T05:42:37;3.80;;;3.28;;
21084;SDS011;34247;50.064;19.970;2023-06-22T05:44:10;8.27;;;3.47;;
21084;SDS011;34247;50.064;19.970;2023-06-22T05:45:44;8.52;;;3.67;;
21084;SDS011;34247;50.064;19.970;2023-06-22T05:47:17;6.47;;;3.30;;
21084;SDS011;34247;50.064;19.970;2023-06-22T05:48:51;7.82;;;3.78;;
21084;SDS011;34247;50.064;19.970;2023-06-22T05:50:24;7.53;;;3.03;;
21084;SDS011;34247;50.064;19.970;2023-06-22T05:51:58;8.60;;;3.38;;
21084;SDS011;34247;50.064;19.970;2023-06-22T05:53:32;5.57;;;3.72;;
21084;SDS011;34247;50.064;19.970;2023-06-22T05:55:05;8.50;;;3.72;;
21084;SDS011;34247;50.064;19.970;2023-06-22T05:56:40;6.72;;;3.60;;
21084;SDS011;34247;50.064;19.970;2023-06-22T05:58:14;5.10;;;3.88;;
21084;SDS011;34247;50.064;19.970;2023-06-22T05:59:47;5.30;;;3.33;;
21084;SDS011;34247;50.064;19.970;2023-06-22T06:01:20;4.63;;;3.60;;
21084;SDS011;34247;50.064;19.970;2023-06-22T06:02:54;5.00;;;3.83;;
21084;SDS011;34247;50.064;19.970;2023-06-22T06:04:28;6.78;;;3.83;;
21084;SDS011;34247;50.064;19.970;2023-06-22T06:06:01;7.25;;;4.07;;
21084;SDS011;34247;50.064;19.970;2023-06-22T06:07:35;6.90;;;3.72;;
21084;SDS011;34247;50.064;19.970;2023-06-22T06:09:08;6.30;;;4.10;;
21084;SDS011;34247;50.064;19.970;2023-06-22T06:10:42;8.43;;;4.32;;
21084;SDS011;34247;50.064;19.970;2023-06-22T06:12:15;8.50;;;4.22;;
21084;SDS011;34247;50.064;19.970;2023-06-22T06:13:49;5.57;;;4.22;;
21084;SDS011;34247;50.064;19.970;2023-06-22T06:15:23;9.05;;;4.47;;
21084;SDS011;34247;50.064;19.970;2023-06-22T06:16:57;5.82;;;3.63;;
21084;SDS011;34247;50.064;19.970;2023-06-22T06:18:30;7.55;;;3.88;;
21084;SDS011;34247;50.064;19.970;2023-06-22T06:20:03;6.63;;;4.00;;
21084;SDS011;34247;50.064;19.970;2023-06-22T06:21:38;7.10;;;4.40;;
21084;SDS011;34247;50.064;19.970;2023-06-22T06:23:11;5.70;;;3.78;;
21084;SDS011;34247;50.064;19.970;2023-06-22T06:24:45;7.13;;;3.88;;
21084;SDS011;34247;50.064;19.970;2023-06-22T06:26:18;5.18;;;3.75;;
21084;SDS011;34247;50.064;19.970;2023-06-22T06:27:52;6.15;;;4.22;;
21084;SDS011;34247;50.064;19.970;2023-06-22T06:29:28;8.80;;;4.57;;
21084;SDS011;34247;50.064;19.970;2023-06-22T06:31:01;5.78;;;3.88;;
21084;SDS011;34247;50.064;19.970;2023-06-22T06:32:35;8.82;;;4.45;;
21084;SDS011;34247;50.064;19.970;2023-06-22T06:34:08;6.60;;;3.97;;
21084;SDS011;34247;50.064;19.970;2023-06-22T06:35:42;8.30;;;4.72;;
21084;SDS011;34247;50.064;19.970;2023-06-22T06:37:16;7.38;;;4.10;;
21084;SDS011;34247;50.064;19.970;2023-06-22T06:38:53;6.97;;;4.55;;
21084;SDS011;34247;50.064;19.970;2023-06-22T06:40:26;9.00;;;4.63;;
21084;SDS011;34247;50.064;19.970;2023-06-22T06:42:02;9.10;;;4.57;;
21084;SDS011;34247;50.064;19.970;2023-06-22T06:43:38;7.32;;;3.97;;
21084;SDS011;34247;50.064;19.970;2023-06-22T06:46:46;5.63;;;3.75;;
21084;SDS011;34247;50.064;19.970;2023-06-22T06:48:19;5.82;;;4.18;;
21084;SDS011;34247;50.064;19.970;2023-06-22T06:49:52;8.00;;;4.45;;
21084;SDS011;34247;50.064;19.970;2023-06-22T06:51:25;4.95;;;3.88;;
21084;SDS011;34247;50.064;19.970;2023-06-22T06:52:58;9.90;;;4.70;;
21084;SDS011;34247;50.064;19.970;2023-06-22T06:54:31;10.50;;;4.30;;
21084;SDS011;34247;50.064;19.970;2023-06-22T06:56:05;11.20;;;4.50;;
21084;SDS011;34247;50.064;19.970;2023-06-22T06:57:39;7.10;;;4.40;;
21084;SDS011;34247;50.064;19.970;2023-06-22T06:59:13;8.32;;;4.50;;
21084;SDS011;34247;50.064;19.970;2023-06-22T07:00:47;4.80;;;3.97;;
21084;SDS011;34247;50.064;19.970;2023-06-22T07:02:20;6.32;;;3.63;;
21084;SDS011;34247;50.064;19.970;2023-06-22T07:03:53;4.63;;;3.42;;
21084;SDS011;34247;50.064;19.970;2023-06-22T07:05:26;4.47;;;3.63;;
21084;SDS011;34247;50.064;19.970;2023-06-22T07:07:00;10.57;;;5.90;;
21084;SDS011;34247;50.064;19.970;2023-06-22T07:08:34;10.63;;;5.63;;
21084;SDS011;34247;50.064;19.970;2023-06-22T07:10:10;9.55;;;5.63;;
21084;SDS011;34247;50.064;19.970;2023-06-22T07:11:43;14.40;;;6.72;;
21084;SDS011;34247;50.064;19.970;2023-06-22T07:13:16;13.60;;;6.93;;
21084;SDS011;34247;50.064;19.970;2023-06-22T07:14:49;10.82;;;6.82;;
21084;SDS011;34247;50.064;19.970;2023-06-22T07:16:24;12.55;;;7.05;;
21084;SDS011;34247;50.064;19.970;2023-06-22T07:17:57;12.02;;;7.30;;
21084;SDS011;34247;50.064;19.970;2023-06-22T07:19:32;10.38;;;6.20;;
21084;SDS011;34247;50.064;19.970;2023-06-22T07:21:06;11.48;;;7.10;;
21084;SDS011;34247;50.064;19.970;2023-06-22T07:22:42;9.48;;;6.57;;
21084;SDS011;34247;50.064;19.970;2023-06-22T07:24:17;15.30;;;5.80;;
21084;SDS011;34247;50.064;19.970;2023-06-22T07:25:50;13.57;;;6.35;;
21084;SDS011;34247;50.064;19.970;2023-06-22T07:27:23;7.70;;;5.38;;
21084;SDS011;34247;50.064;19.970;2023-06-22T07:28:58;8.38;;;5.82;;
21084;SDS011;34247;50.064;19.970;2023-06-22T07:30:32;9.82;;;5.82;;
21084;SDS011;34247;50.064;19.970;2023-06-22T07:32:07;9.27;;;5.80;;
21084;SDS011;34247;50.064;19.970;2023-06-22T07:33:42;10.63;;;6.60;;
21084;SDS011;34247;50.064;19.970;2023-06-22T07:35:16;10.82;;;6.10;;
21084;SDS011;34247;50.064;19.970;2023-06-22T07:36:49;12.25;;;6.70;;
21084;SDS011;34247;50.064;19.970;2023-06-22T07:38:24;11.85;;;7.03;;
21084;SDS011;34247;50.064;19.970;2023-06-22T07:39:57;16.98;;;7.63;;
21084;SDS011;34247;50.064;19.970;2023-06-22T07:41:30;9.68;;;6.90;;
21084;SDS011;34247;50.064;19.970;2023-06-22T07:43:03;12.88;;;7.43;;
21084;SDS011;34247;50.064;19.970;2023-06-22T07:44:41;10.38;;;7.82;;
21084;SDS011;34247;50.064;19.970;2023-06-22T07:46:14;11.45;;;7.80;;
21084;SDS011;34247;50.064;19.970;2023-06-22T07:47:49;13.15;;;7.13;;
21084;SDS011;34247;50.064;19.970;2023-06-22T07:49:22;11.32;;;7.35;;
21084;SDS011;34247;50.064;19.970;2023-06-22T07:50:56;10.57;;;6.85;;
21084;SDS011;34247;50.064;19.970;2023-06-22T07:52:30;9.43;;;6.70;;
21084;SDS011;34247;50.064;19.970;2023-06-22T07:54:04;11.40;;;7.03;;
21084;SDS011;34247;50.064;19.970;2023-06-22T07:55:38;9.32;;;7.13;;
21084;SDS011;34247;50.064;19.970;2023-06-22T07:57:12;10.93;;;7.78;;
21084;SDS011;34247;50.064;19.970;2023-06-22T07:58:46;12.23;;;7.03;;
21084;SDS011;34247;50.064;19.970;2023-06-22T08:00:20;11.27;;;7.18;;
21084;SDS011;34247;50.064;19.970;2023-06-22T08:01:54;8.75;;;5.90;;
21084;SDS011;34247;50.064;19.970;2023-06-22T08:03:28;9.73;;;6.20;;
21084;SDS011;34247;50.064;19.970;2023-06-22T08:05:01;13.27;;;7.30;;
21084;SDS011;34247;50.064;19.970;2023-06-22T08:06:51;9.27;;;6.60;;
21084;SDS011;34247;50.064;19.970;2023-06-22T08:08:25;10.48;;;6.80;;
21084;SDS011;34247;50.064;19.970;2023-06-22T08:09:58;13.65;;;6.07;;
21084;SDS011;34247;50.064;19.970;2023-06-22T08:11:32;8.82;;;6.88;;
21084;SDS011;34247;50.064;19.970;2023-06-22T08:13:07;7.70;;;6.20;;
21084;SDS011;34247;50.064;19.970;2023-06-22T08:14:42;9.25;;;6.53;;
21084;SDS011;34247;50.064;19.970;2023-06-22T08:16:15;9.20;;;6.50;;
21084;SDS011;34247;50.064;19.970;2023-06-22T08:17:48;8.27;;;6.47;;
21084;SDS011;34247;50.064;19.970;2023-06-22T08:19:25;9.55;;;7.38;;
21084;SDS011;34247;50.064;19.970;2023-06-22T08:20:58;10.45;;;7.53;;
21084;SDS011;34247;50.064;19.970;2023-06-22T08:22:34;9.18;;;6.63;;
21084;SDS011;34247;50.064;19.970;2023-06-22T08:24:08;11.32;;;6.72;;
21084;SDS011;34247;50.064;19.970;2023-06-22T08:25:43;9.52;;;7.43;;
21084;SDS011;34247;50.064;19.970;2023-06-22T08:27:18;8.50;;;6.70;;
21084;SDS011;34247;50.064;19.970;2023-06-22T08:28:51;8.70;;;6.70;;
21084;SDS011;34247;50.064;19.970;2023-06-22T08:30:24;9.10;;;6.47;;
21084;SDS011;34247;50.064;19.970;2023-06-22T08:31:57;9.82;;;6.13;;
21084;SDS011;34247;50.064;19.970;2023-06-22T08:33:31;7.10;;;5.90;;
21084;SDS011;34247;50.064;19.970;2023-06-22T08:35:05;7.47;;;6.05;;
21084;SDS011;34247;50.064;19.970;2023-06-22T08:36:41;11.05;;;6.97;;
21084;SDS011;34247;50.064;19.970;2023-06-22T08:38:15;7.15;;;5.55;;
21084;SDS011;34247;50.064;19.970;2023-06-22T08:39:48;9.73;;;6.78;;
21084;SDS011;34247;50.064;19.970;2023-06-22T08:41:21;8.05;;;6.35;;
21084;SDS011;34247;50.064;19.970;2023-06-22T08:42:54;8.65;;;6.72;;
21084;SDS011;34247;50.064;19.970;2023-06-22T08:44:30;8.75;;;6.25;;
21084;SDS011;34247;50.064;19.970;2023-06-22T08:46:07;9.45;;;6.68;;
21084;SDS011;34247;50.064;19.970;2023-06-22T08:47:42;10.40;;;7.43;;
21084;SDS011;34247;50.064;19.970;2023-06-22T08:49:15;8.30;;;6.22;;
21084;SDS011;34247;50.064;19.970;2023-06-22T08:50:49;10.55;;;6.75;;
21084;SDS011;34247;50.064;19.970;2023-06-22T08:52:23;8.00;;;5.82;;
21084;SDS011;34247;50.064;19.970;2023-06-22T08:53:57;6.95;;;5.68;;
21084;SDS011;34247;50.064;19.970;2023-06-22T08:55:30;7.97;;;5.30;;
21084;SDS011;34247;50.064;19.970;2023-06-22T08:57:05;6.63;;;5.43;;
21084;SDS011;34247;50.064;19.970;2023-06-22T08:58:44;7.95;;;5.78;;
21084;SDS011;34247;50.064;19.970;2023-06-22T09:00:18;7.03;;;5.78;;
21084;SDS011;34247;50.064;19.970;2023-06-22T09:01:57;10.10;;;6.05;;
21084;SDS011;34247;50.064;19.970;2023-06-22T09:03:31;9.20;;;6.13;;
21084;SDS011;34247;50.064;19.970;2023-06-22T09:05:05;7.28;;;5.25;;
21084;SDS011;34247;50.064;19.970;2023-06-22T09:06:42;8.30;;;5.97;;
21084;SDS011;34247;50.064;19.970;2023-06-22T09:08:15;9.15;;;5.90;;
21084;SDS011;34247;50.064;19.970;2023-06-22T09:09:50;7.60;;;5.50;;
21084;SDS011;34247;50.064;19.970;2023-06-22T09:11:24;7.53;;;5.65;;
21084;SDS011;34247;50.064;19.970;2023-06-22T09:13:01;7.75;;;6.18;;
21084;SDS011;34247;50.064;19.970;2023-06-22T09:14:35;7.20;;;5.82;;
21084;SDS011;34247;50.064;19.970;2023-06-22T09:16:10;9.18;;;5.65;;
21084;SDS011;34247;50.064;19.970;2023-06-22T09:17:44;6.70;;;5.70;;
21084;SDS011;34247;50.064;19.970;2023-06-22T09:19:17;8.07;;;5.95;;
21084;SDS011;34247;50.064;19.970;2023-06-22T09:20:51;6.30;;;5.45;;
21084;SDS011;34247;50.064;19.970;2023-06-22T09:22:26;8.10;;;5.45;;
21084;SDS011;34247;50.064;19.970;2023-06-22T09:24:03;7.55;;;5.82;;
21084;SDS011;34247;50.064;19.970;2023-06-22T09:25:49;9.18;;;5.60;;
21084;SDS011;34247;50.064;19.970;2023-06-22T09:27:22;6.18;;;4.97;;
21084;SDS011;34247;50.064;19.970;2023-06-22T09:29:00;7.00;;;5.57;;
21084;SDS011;34247;50.064;19.970;2023-06-22T09:30:33;7.47;;;5.55;;
21084;SDS011;34247;50.064;19.970;2023-06-22T09:32:07;9.82;;;5.63;;